sensor_id;sensor_type;location;lat;lon;timestamp;temperature;humidity
47520;DHT22;33252;48.122;11.538;2023-12-04T00:00:03;-6.60;99.90
47520;DHT22;33252;48.122;11.538;2023-12-04T00:02:28;-6.60;99.90
47520;DHT22;33252;48.122;11.538;2023-12-04T00:04:54;-6.60;99.90
47520;DHT22;33252;48.122;11.538;2023-12-04T00:07:19;-6.50;99.90
47520;DHT22;33252;48.122;11.538;2023-12-04T00:09:45;-6.60;99.90
47520;DHT22;33252;48.122;11.538;2023-12-04T00:12:10;-6.70;99.90
47520;DHT22;33252;48.122;11.538;2023-12-04T00:14:36;-6.70;99.90
47520;DHT22;33252;48.122;11.538;2023-12-04T00:17:01;-6.60;99.90
47520;DHT22;33252;48.122;11.538;2023-12-04T00:19:27;-6.70;99.90
47520;DHT22;33252;48.122;11.538;2023-12-04T00:21:52;-6.70;99.90
47520;DHT22;33252;48.122;11.538;2023-12-04T00:24:18;-6.70;99.90
47520;DHT22;33252;48.122;11.538;2023-12-04T00:26:43;-6.70;99.90
47520;DHT22;33252;48.122;11.538;2023-12-04T00:29:09;-6.80;99.90
47520;DHT22;33252;48.122;11.538;2023-12-04T00:31:34;-6.80;99.90
47520;DHT22;33252;48.122;11.538;2023-12-04T00:34:00;-6.80;99.90
47520;DHT22;33252;48.122;11.538;2023-12-04T00:36:25;-6.80;99.90
47520;DHT22;33252;48.122;11.538;2023-12-04T00:38:51;-6.70;99.90
47520;DHT22;33252;48.122;11.538;2023-12-04T00:41:16;-6.80;99.90
47520;DHT22;33252;48.122;11.538;2023-12-04T00:43:42;-6.80;99.90
47520;DHT22;33252;48.122;11.538;2023-12-04T00:46:07;-6.70;99.90
47520;DHT22;33252;48.122;11.538;2023-12-04T00:48:33;-6.80;99.90
47520;DHT22;33252;48.122;11.538;2023-12-04T00:50:59;-6.80;99.90
47520;DHT22;33252;48.122;11.538;2023-12-04T00:53:24;-6.80;99.90
47520;DHT22;33252;48.122;11.538;2023-12-04T00:55:50;-6.80;99.90
47520;DHT22;33252;48.122;11.538;2023-12-04T00:58:15;-6.80;99.90
47520;DHT22;33252;48.122;11.538;2023-12-04T01:00:41;-6.90;99.90
47520;DHT22;33252;48.122;11.538;2023-12-04T01:03:06;-6.80;99.90
47520;DHT22;33252;48.122;11.538;2023-12-04T01:05:32;-6.90;99.90
47520;DHT22;33252;48.122;11.538;2023-12-04T01:07:57;-6.80;99.90
47520;DHT22;33252;48.122;11.538;2023-12-04T01:10:23;-6.80;99.90
47520;DHT22;33252;48.122;11.538;2023-12-04T01:12:48;-6.70;99.90
47520;DHT22;33252;48.122;11.538;2023-12-04T01:15:14;-6.80;99.90
47520;DHT22;33252;48.122;11.538;2023-12-04T01:17:39;-6.80;99.90
47520;DHT22;33252;48.122;11.538;2023-12-04T01:20:05;-6.80;99.90
47520;DHT22;33252;48.122;11.538;2023-12-04T01:22:31;-6.80;99.90
47520;DHT22;33252;48.122;11.538;2023-12-04T01:24:57;-6.80;99.90
47520;DHT22;33252;48.122;11.538;2023-12-04T01:27:22;-6.80;99.90
47520;DHT22;33252;48.122;11.538;2023-12-04T01:29:48;-6.80;99.90
47520;DHT22;33252;48.122;11.538;2023-12-04T01:32:13;-6.80;99.90
47520;DHT22;33252;48.122;11.538;2023-12-04T01:34:39;-7.00;99.90
47520;DHT22;33252;48.122;11.538;2023-12-04T01:37:04;-6.90;99.90
47520;DHT22;33252;48.122;11.538;2023-12-04T01:39:30;-6.90;99.90
47520;DHT22;33252;48.122;11.538;2023-12-04T01:41:55;-6.80;99.90
47520;DHT22;33252;48.122;11.538;2023-12-04T01:44:21;-6.80;99.90
47520;DHT22;33252;48.122;11.538;2023-12-04T01:46:47;-6.90;99.90
47520;DHT22;33252;48.122;11.538;2023-12-04T01:49:13;-6.80;99.90
47520;DHT22;33252;48.122;11.538;2023-12-04T01:51:39;-7.00;99.90
47520;DHT22;33252;48.122;11.538;2023-12-04T01:54:06;-6.90;99.90
47520;DHT22;33252;48.122;11.538;2023-12-04T01:56:32;-6.90;99.90
47520;DHT22;33252;48.122;11.538;2023-12-04T01:58:58;-7.00;99.90
47520;DHT22;33252;48.122;11.538;2023-12-04T02:01:24;-7.00;99.90
47520;DHT22;33252;48.122;11.538;2023-12-04T02:03:51;-6.90;99.90
47520;DHT22;33252;48.122;11.538;2023-12-04T02:06:17;-6.80;99.90
47520;DHT22;33252;48.122;11.538;2023-12-04T02:08:46;-7.00;99.90
47520;DHT22;33252;48.122;11.538;2023-12-04T02:11:12;-6.90;99.90
47520;DHT22;33252;48.122;11.538;2023-12-04T02:13:38;-7.00;99.90
47520;DHT22;33252;48.122;11.538;2023-12-04T02:16:05;-7.00;99.90
47520;DHT22;33252;48.122;11.538;2023-12-04T02:18:33;-7.00;99.90
47520;DHT22;33252;48.122;11.538;2023-12-04T02:21:01;-6.90;99.90
47520;DHT22;33252;48.122;11.538;2023-12-04T02:23:27;-7.00;99.90
47520;DHT22;33252;48.122;11.538;2023-12-04T02:25:59;-7.00;99.90
47520;DHT22;33252;48.122;11.538;2023-12-04T02:28:28;-7.00;99.90
47520;DHT22;33252;48.122;11.538;2023-12-04T02:30:55;-7.00;99.90
47520;DHT22;33252;48.122;11.538;2023-12-04T02:33:24;-7.10;99.90
47520;DHT22;33252;48.122;11.538;2023-12-04T02:35:50;-7.00;99.90
47520;DHT22;33252;48.122;11.538;2023-12-04T02:38:16;-7.00;99.90
47520;DHT22;33252;48.122;11.538;2023-12-04T02:40:42;-7.10;99.90
47520;DHT22;33252;48.122;11.538;2023-12-04T02:43:07;-7.00;99.90
47520;DHT22;33252;48.122;11.538;2023-12-04T02:45:33;-6.90;99.90
47520;DHT22;33252;48.122;11.538;2023-12-04T02:47:58;-7.00;99.90
47520;DHT22;33252;48.122;11.538;2023-12-04T02:50:24;-6.90;99.90
47520;DHT22;33252;48.122;11.538;2023-12-04T02:52:49;-6.90;99.90
47520;DHT22;33252;48.122;11.538;2023-12-04T02:55:15;-7.00;99.90
47520;DHT22;33252;48.122;11.538;2023-12-04T02:57:41;-7.10;99.90
47520;DHT22;33252;48.122;11.538;2023-12-04T03:00:07;-7.20;99.90
47520;DHT22;33252;48.122;11.538;2023-12-04T03:02:32;-7.20;99.90
47520;DHT22;33252;48.122;11.538;2023-12-04T03:04:58;-7.30;99.90
47520;DHT22;33252;48.122;11.538;2023-12-04T03:07:24;-7.30;99.90
47520;DHT22;33252;48.122;11.538;2023-12-04T03:09:50;-7.30;99.90
47520;DHT22;33252;48.122;11.538;2023-12-04T03:12:16;-7.30;99.90
47520;DHT22;33252;48.122;11.538;2023-12-04T03:14:42;-7.40;99.90
47520;DHT22;33252;48.122;11.538;2023-12-04T03:17:07;-7.40;99.90
47520;DHT22;33252;48.122;11.538;2023-12-04T03:19:33;-7.50;99.90
47520;DHT22;33252;48.122;11.538;2023-12-04T03:22:01;-7.50;99.90
47520;DHT22;33252;48.122;11.538;2023-12-04T03:24:26;-7.50;99.90
47520;DHT22;33252;48.122;11.538;2023-12-04T03:26:52;-7.40;99.90
47520;DHT22;33252;48.122;11.538;2023-12-04T03:29:17;-7.30;99.90
47520;DHT22;33252;48.122;11.538;2023-12-04T03:31:43;-7.40;99.90
47520;DHT22;33252;48.122;11.538;2023-12-04T03:34:09;-7.40;99.90
47520;DHT22;33252;48.122;11.538;2023-12-04T03:36:34;-7.40;99.90
47520;DHT22;33252;48.122;11.538;2023-12-04T03:39:00;-7.40;99.90
47520;DHT22;33252;48.122;11.538;2023-12-04T03:41:25;-7.40;99.90
47520;DHT22;33252;48.122;11.538;2023-12-04T03:43:51;-7.50;99.90
47520;DHT22;33252;48.122;11.538;2023-12-04T03:46:16;-7.50;99.90
47520;DHT22;33252;48.122;11.538;2023-12-04T03:48:42;-7.40;99.90
47520;DHT22;33252;48.122;11.538;2023-12-04T03:51:08;-7.50;99.90
47520;DHT22;33252;48.122;11.538;2023-12-04T03:53:33;-7.50;99.90
47520;DHT22;33252;48.122;11.538;2023-12-04T03:55:59;-7.60;99.90
47520;DHT22;33252;48.122;11.538;2023-12-04T03:58:25;-7.70;99.90
47520;DHT22;33252;48.122;11.538;2023-12-04T04:00:50;-7.80;99.90
47520;DHT22;33252;48.122;11.538;2023-12-04T04:03:16;-7.70;99.90
47520;DHT22;33252;48.122;11.538;2023-12-04T04:05:41;-7.80;99.90
47520;DHT22;33252;48.122;11.538;2023-12-04T04:08:07;-7.90;99.90
47520;DHT22;33252;48.122;11.538;2023-12-04T04:10:33;-7.80;99.90
47520;DHT22;33252;48.122;11.538;2023-12-04T04:12:59;-7.80;99.90
47520;DHT22;33252;48.122;11.538;2023-12-04T04:15:25;-7.90;99.90
47520;DHT22;33252;48.122;11.538;2023-12-04T04:17:51;-8.10;99.90
47520;DHT22;33252;48.122;11.538;2023-12-04T04:20:17;-8.10;99.90
47520;DHT22;33252;48.122;11.538;2023-12-04T04:22:42;-8.00;99.90
47520;DHT22;33252;48.122;11.538;2023-12-04T04:25:09;-8.00;99.90
47520;DHT22;33252;48.122;11.538;2023-12-04T04:27:35;-8.00;99.90
47520;DHT22;33252;48.122;11.538;2023-12-04T04:30:01;-7.90;99.90
47520;DHT22;33252;48.122;11.538;2023-12-04T04:32:27;-7.80;99.90
47520;DHT22;33252;48.122;11.538;2023-12-04T04:34:53;-7.70;99.90
47520;DHT22;33252;48.122;11.538;2023-12-04T04:37:19;-7.80;99.90
47520;DHT22;33252;48.122;11.538;2023-12-04T04:39:45;-7.80;99.90
47520;DHT22;33252;48.122;11.538;2023-12-04T04:42:11;-7.60;99.90
47520;DHT22;33252;48.122;11.538;2023-12-04T04:44:36;-7.50;99.90
47520;DHT22;33252;48.122;11.538;2023-12-04T04:47:02;-7.40;99.90
47520;DHT22;33252;48.122;11.538;2023-12-04T04:49:27;-7.60;99.90
47520;DHT22;33252;48.122;11.538;2023-12-04T04:51:53;-7.70;99.90
47520;DHT22;33252;48.122;11.538;2023-12-04T04:54:18;-7.70;99.90
47520;DHT22;33252;48.122;11.538;2023-12-04T04:56:44;-7.60;99.90
47520;DHT22;33252;48.122;11.538;2023-12-04T04:59:10;-7.70;99.90
47520;DHT22;33252;48.122;11.538;2023-12-04T05:01:35;-7.80;99.90
47520;DHT22;33252;48.122;11.538;2023-12-04T05:04:02;-7.70;99.90
47520;DHT22;33252;48.122;11.538;2023-12-04T05:06:28;-7.60;99.90
47520;DHT22;33252;48.122;11.538;2023-12-04T05:08:53;-7.70;99.90
47520;DHT22;33252;48.122;11.538;2023-12-04T05:11:19;-7.70;99.90
47520;DHT22;33252;48.122;11.538;2023-12-04T05:13:45;-7.70;99.90
47520;DHT22;33252;48.122;11.538;2023-12-04T05:16:10;-7.70;99.90
47520;DHT22;33252;48.122;11.538;2023-12-04T05:18:37;-7.60;99.90
47520;DHT22;33252;48.122;11.538;2023-12-04T05:21:03;-7.60;99.90
47520;DHT22;33252;48.122;11.538;2023-12-04T05:23:33;-7.50;99.90
47520;DHT22;33252;48.122;11.538;2023-12-04T05:25:59;-7.50;99.90
47520;DHT22;33252;48.122;11.538;2023-12-04T05:28:25;-7.50;99.90
47520;DHT22;33252;48.122;11.538;2023-12-04T05:30:50;-7.50;99.90
47520;DHT22;33252;48.122;11.538;2023-12-04T05:33:16;-7.70;99.90
47520;DHT22;33252;48.122;11.538;2023-12-04T05:35:41;-7.60;99.90
47520;DHT22;33252;48.122;11.538;2023-12-04T05:38:07;-7.70;99.90
47520;DHT22;33252;48.122;11.538;2023-12-04T05:40:33;-7.60;99.90
47520;DHT22;33252;48.122;11.538;2023-12-04T05:42:59;-7.60;99.90
47520;DHT22;33252;48.122;11.538;2023-12-04T05:45:24;-7.80;99.90
47520;DHT22;33252;48.122;11.538;2023-12-04T05:47:50;-7.80;99.90
47520;DHT22;33252;48.122;11.538;2023-12-04T05:50:15;-7.80;99.90
47520;DHT22;33252;48.122;11.538;2023-12-04T05:52:41;-7.80;99.90
47520;DHT22;33252;48.122;11.538;2023-12-04T05:55:07;-7.90;99.90
47520;DHT22;33252;48.122;11.538;2023-12-04T05:57:32;-7.90;99.90
47520;DHT22;33252;48.122;11.538;2023-12-04T05:59:58;-7.90;99.90
47520;DHT22;33252;48.122;11.538;2023-12-04T06:02:24;-7.90;99.90
47520;DHT22;33252;48.122;11.538;2023-12-04T06:04:50;-8.10;99.90
47520;DHT22;33252;48.122;11.538;2023-12-04T06:07:16;-8.00;99.90
47520;DHT22;33252;48.122;11.538;2023-12-04T06:09:42;-7.90;99.90
47520;DHT22;33252;48.122;11.538;2023-12-04T06:12:07;-7.80;99.90
47520;DHT22;33252;48.122;11.538;2023-12-04T06:14:34;-7.90;99.90
47520;DHT22;33252;48.122;11.538;2023-12-04T06:17:00;-7.90;99.90
47520;DHT22;33252;48.122;11.538;2023-12-04T06:19:25;-7.90;99.90
47520;DHT22;33252;48.122;11.538;2023-12-04T06:21:51;-7.80;99.90
47520;DHT22;33252;48.122;11.538;2023-12-04T06:24:18;-7.70;99.90
47520;DHT22;33252;48.122;11.538;2023-12-04T06:26:44;-7.70;99.90
47520;DHT22;33252;48.122;11.538;2023-12-04T06:29:11;-7.70;99.90
47520;DHT22;33252;48.122;11.538;2023-12-04T06:31:37;-7.70;99.90
47520;DHT22;33252;48.122;11.538;2023-12-04T06:34:03;-7.70;99.90
47520;DHT22;33252;48.122;11.538;2023-12-04T06:36:31;-7.70;99.90
47520;DHT22;33252;48.122;11.538;2023-12-04T06:39:01;-7.60;99.90
47520;DHT22;33252;48.122;11.538;2023-12-04T06:41:29;-7.60;99.90
47520;DHT22;33252;48.122;11.538;2023-12-04T06:43:55;-7.70;99.90
47520;DHT22;33252;48.122;11.538;2023-12-04T06:46:21;-7.60;99.90
47520;DHT22;33252;48.122;11.538;2023-12-04T06:48:50;-7.60;99.90
47520;DHT22;33252;48.122;11.538;2023-12-04T06:51:18;-7.60;99.90
47520;DHT22;33252;48.122;11.538;2023-12-04T06:53:44;-7.70;99.90
47520;DHT22;33252;48.122;11.538;2023-12-04T06:56:09;-7.60;99.90
47520;DHT22;33252;48.122;11.538;2023-12-04T06:58:35;-7.50;99.90
47520;DHT22;33252;48.122;11.538;2023-12-04T07:01:00;-7.50;99.90
47520;DHT22;33252;48.122;11.538;2023-12-04T07:03:26;-7.50;99.90
47520;DHT22;33252;48.122;11.538;2023-12-04T07:05:51;-7.60;99.90
47520;DHT22;33252;48.122;11.538;2023-12-04T07:08:18;-7.50;99.90
47520;DHT22;33252;48.122;11.538;2023-12-04T07:10:43;-7.60;99.90
47520;DHT22;33252;48.122;11.538;2023-12-04T07:13:09;-7.60;99.90
47520;DHT22;33252;48.122;11.538;2023-12-04T07:15:35;-7.60;99.90
47520;DHT22;33252;48.122;11.538;2023-12-04T07:18:01;-7.50;99.90
47520;DHT22;33252;48.122;11.538;2023-12-04T07:20:26;-7.60;99.90
47520;DHT22;33252;48.122;11.538;2023-12-04T07:22:52;-7.60;99.90
47520;DHT22;33252;48.122;11.538;2023-12-04T07:25:17;-7.60;99.90
47520;DHT22;33252;48.122;11.538;2023-12-04T07:27:43;-7.50;99.90
47520;DHT22;33252;48.122;11.538;2023-12-04T07:30:08;-7.60;99.90
47520;DHT22;33252;48.122;11.538;2023-12-04T07:32:34;-7.50;99.90
47520;DHT22;33252;48.122;11.538;2023-12-04T07:35:00;-7.50;99.90
47520;DHT22;33252;48.122;11.538;2023-12-04T07:37:26;-7.40;99.90
47520;DHT22;33252;48.122;11.538;2023-12-04T07:39:51;-7.40;99.90
47520;DHT22;33252;48.122;11.538;2023-12-04T07:42:17;-7.30;99.90
47520;DHT22;33252;48.122;11.538;2023-12-04T07:44:42;-7.30;99.90
47520;DHT22;33252;48.122;11.538;2023-12-04T07:47:08;-7.30;99.90
47520;DHT22;33252;48.122;11.538;2023-12-04T07:49:33;-7.20;99.90
47520;DHT22;33252;48.122;11.538;2023-12-04T07:51:59;-7.20;99.90
47520;DHT22;33252;48.122;11.538;2023-12-04T07:54:24;-7.10;99.90
47520;DHT22;33252;48.122;11.538;2023-12-04T07:56:52;-7.00;99.90
47520;DHT22;33252;48.122;11.538;2023-12-04T07:59:18;-6.90;99.90
47520;DHT22;33252;48.122;11.538;2023-12-04T08:01:44;-6.90;99.90
47520;DHT22;33252;48.122;11.538;2023-12-04T08:04:10;-6.80;99.90
47520;DHT22;33252;48.122;11.538;2023-12-04T08:06:36;-6.70;99.90
47520;DHT22;33252;48.122;11.538;2023-12-04T08:09:02;-6.70;99.90
47520;DHT22;33252;48.122;11.538;2023-12-04T08:11:28;-6.70;99.90
47520;DHT22;33252;48.122;11.538;2023-12-04T08:13:53;-6.60;99.90
47520;DHT22;33252;48.122;11.538;2023-12-04T08:16:19;-6.70;99.90
47520;DHT22;33252;48.122;11.538;2023-12-04T08:18:45;-6.60;99.90
47520;DHT22;33252;48.122;11.538;2023-12-04T08:21:11;-6.50;99.90
47520;DHT22;33252;48.122;11.538;2023-12-04T08:23:37;-6.50;99.90
47520;DHT22;33252;48.122;11.538;2023-12-04T08:26:03;-6.50;99.90
47520;DHT22;33252;48.122;11.538;2023-12-04T08:28:29;-6.40;99.90
47520;DHT22;33252;48.122;11.538;2023-12-04T08:30:54;-6.30;99.90
47520;DHT22;33252;48.122;11.538;2023-12-04T08:33:20;-6.30;99.90
47520;DHT22;33252;48.122;11.538;2023-12-04T08:35:46;-6.30;99.90
47520;DHT22;33252;48.122;11.538;2023-12-04T08:38:12;-6.20;99.90
47520;DHT22;33252;48.122;11.538;2023-12-04T08:40:38;-6.20;99.90
47520;DHT22;33252;48.122;11.538;2023-12-04T08:43:03;-6.10;99.90
47520;DHT22;33252;48.122;11.538;2023-12-04T08:45:29;-6.20;99.90
47520;DHT22;33252;48.122;11.538;2023-12-04T08:47:55;-6.10;99.90
47520;DHT22;33252;48.122;11.538;2023-12-04T08:50:21;-6.00;99.90
47520;DHT22;33252;48.122;11.538;2023-12-04T08:52:46;-5.90;99.90
47520;DHT22;33252;48.122;11.538;2023-12-04T08:55:12;-5.90;99.90
47520;DHT22;33252;48.122;11.538;2023-12-04T08:57:37;-5.90;99.90
47520;DHT22;33252;48.122;11.538;2023-12-04T09:00:04;-5.80;99.90
47520;DHT22;33252;48.122;11.538;2023-12-04T09:02:30;-5.70;99.90
47520;DHT22;33252;48.122;11.538;2023-12-04T09:04:56;-5.80;99.90
47520;DHT22;33252;48.122;11.538;2023-12-04T09:07:21;-5.70;99.90
47520;DHT22;33252;48.122;11.538;2023-12-04T09:09:47;-5.70;99.90
47520;DHT22;33252;48.122;11.538;2023-12-04T09:12:12;-5.60;99.90
47520;DHT22;33252;48.122;11.538;2023-12-04T09:14:38;-5.70;99.90
47520;DHT22;33252;48.122;11.538;2023-12-04T09:17:04;-5.60;99.90
47520;DHT22;33252;48.122;11.538;2023-12-04T09:19:30;-5.50;99.90
47520;DHT22;33252;48.122;11.538;2023-12-04T09:21:56;-5.40;99.90
47520;DHT22;33252;48.122;11.538;2023-12-04T09:24:23;-5.40;99.90
47520;DHT22;33252;48.122;11.538;2023-12-04T09:26:49;-5.40;99.90
47520;DHT22;33252;48.122;11.538;2023-12-04T09:29:14;-5.30;99.90
47520;DHT22;33252;48.122;11.538;2023-12-04T09:31:41;-5.40;99.90
47520;DHT22;33252;48.122;11.538;2023-12-04T09:34:07;-5.40;99.90
47520;DHT22;33252;48.122;11.538;2023-12-04T09:36:33;-5.40;99.90
47520;DHT22;33252;48.122;11.538;2023-12-04T09:38:59;-5.20;99.90
47520;DHT22;33252;48.122;11.538;2023-12-04T09:41:25;-5.20;99.90
47520;DHT22;33252;48.122;11.538;2023-12-04T09:43:51;-5.40;99.90
47520;DHT22;33252;48.122;11.538;2023-12-04T09:46:17;-5.40;99.90
47520;DHT22;33252;48.122;11.538;2023-12-04T09:48:43;-5.60;99.90
47520;DHT22;33252;48.122;11.538;2023-12-04T09:51:09;-5.50;99.90
47520;DHT22;33252;48.122;11.538;2023-12-04T09:53:35;-5.70;99.90
47520;DHT22;33252;48.122;11.538;2023-12-04T09:56:03;-5.80;99.90
47520;DHT22;33252;48.122;11.538;2023-12-04T09:58:30;-5.80;99.90
47520;DHT22;33252;48.122;11.538;2023-12-04T10:00:59;-5.90;99.90
47520;DHT22;33252;48.122;11.538;2023-12-04T10:03:25;-6.00;99.90
47520;DHT22;33252;48.122;11.538;2023-12-04T10:05:51;-5.90;99.90
47520;DHT22;33252;48.122;11.538;2023-12-04T10:08:17;-5.90;99.90
47520;DHT22;33252;48.122;11.538;2023-12-04T10:10:43;-6.10;99.90
47520;DHT22;33252;48.122;11.538;2023-12-04T10:13:08;-6.00;99.90
47520;DHT22;33252;48.122;11.538;2023-12-04T10:15:34;-6.10;99.90
47520;DHT22;33252;48.122;11.538;2023-12-04T10:18:24;-6.40;99.90
47520;DHT22;33252;48.122;11.538;2023-12-04T10:20:54;-6.20;99.90
47520;DHT22;33252;48.122;11.538;2023-12-04T10:23:23;-6.10;99.90
47520;DHT22;33252;48.122;11.538;2023-12-04T10:26:01;-5.80;99.90
47520;DHT22;33252;48.122;11.538;2023-12-04T10:28:27;-5.60;99.90
47520;DHT22;33252;48.122;11.538;2023-12-04T10:30:53;-5.40;99.90
47520;DHT22;33252;48.122;11.538;2023-12-04T10:33:19;-5.30;99.90
47520;DHT22;33252;48.122;11.538;2023-12-04T10:35:46;-5.20;99.90
47520;DHT22;33252;48.122;11.538;2023-12-04T10:38:12;-5.20;99.90
47520;DHT22;33252;48.122;11.538;2023-12-04T10:40:40;-5.30;99.90
47520;DHT22;33252;48.122;11.538;2023-12-04T10:43:11;-5.10;99.90
47520;DHT22;33252;48.122;11.538;2023-12-04T10:45:37;-4.90;99.90
47520;DHT22;33252;48.122;11.538;2023-12-04T10:48:04;-4.90;99.90
47520;DHT22;33252;48.122;11.538;2023-12-04T10:50:37;-4.80;99.90
47520;DHT22;33252;48.122;11.538;2023-12-04T10:53:07;-4.80;99.90
47520;DHT22;33252;48.122;11.538;2023-12-04T10:55:33;-4.80;99.90
47520;DHT22;33252;48.122;11.538;2023-12-04T10:58:21;-4.70;99.90
47520;DHT22;33252;48.122;11.538;2023-12-04T11:00:48;-5.00;99.90
47520;DHT22;33252;48.122;11.538;2023-12-04T11:03:18;-4.80;99.90
47520;DHT22;33252;48.122;11.538;2023-12-04T11:05:45;-4.90;99.90
47520;DHT22;33252;48.122;11.538;2023-12-04T11:08:16;-4.90;99.90
47520;DHT22;33252;48.122;11.538;2023-12-04T11:10:48;-4.80;99.90
47520;DHT22;33252;48.122;11.538;2023-12-04T11:13:21;-4.80;99.90
47520;DHT22;33252;48.122;11.538;2023-12-04T11:15:48;-4.80;99.90
47520;DHT22;33252;48.122;11.538;2023-12-04T11:18:15;-4.70;99.90
47520;DHT22;33252;48.122;11.538;2023-12-04T11:20:48;-4.60;99.90
47520;DHT22;33252;48.122;11.538;2023-12-04T11:23:16;-4.60;99.90
47520;DHT22;33252;48.122;11.538;2023-12-04T11:25:43;-4.40;99.90
47520;DHT22;33252;48.122;11.538;2023-12-04T11:28:10;-4.30;99.90
47520;DHT22;33252;48.122;11.538;2023-12-04T11:30:37;-4.20;99.90
47520;DHT22;33252;48.122;11.538;2023-12-04T11:33:05;-4.20;99.90
47520;DHT22;33252;48.122;11.538;2023-12-04T11:35:30;-4.10;99.90
47520;DHT22;33252;48.122;11.538;2023-12-04T11:37:56;-4.10;99.90
47520;DHT22;33252;48.122;11.538;2023-12-04T11:40:22;-4.10;99.90
47520;DHT22;33252;48.122;11.538;2023-12-04T11:42:48;-4.10;99.90
47520;DHT22;33252;48.122;11.538;2023-12-04T11:45:20;-4.00;99.90
47520;DHT22;33252;48.122;11.538;2023-12-04T11:47:54;-4.00;99.90
47520;DHT22;33252;48.122;11.538;2023-12-04T11:50:21;-3.90;99.90
47520;DHT22;33252;48.122;11.538;2023-12-04T11:52:48;-4.00;99.90
47520;DHT22;33252;48.122;11.538;2023-12-04T11:55:20;-4.00;99.90
47520;DHT22;33252;48.122;11.538;2023-12-04T11:57:49;-3.90;99.90
47520;DHT22;33252;48.122;11.538;2023-12-04T12:05:20;-3.70;99.90
47520;DHT22;33252;48.122;11.538;2023-12-04T12:07:46;-3.80;99.90
47520;DHT22;33252;48.122;11.538;2023-12-04T12:10:12;-3.70;99.90
47520;DHT22;33252;48.122;11.538;2023-12-04T12:12:39;-3.70;99.90
47520;DHT22;33252;48.122;11.538;2023-12-04T12:15:09;-3.70;99.90
47520;DHT22;33252;48.122;11.538;2023-12-04T12:17:35;-3.80;99.90
47520;DHT22;33252;48.122;11.538;2023-12-04T12:20:00;-3.80;99.90
47520;DHT22;33252;48.122;11.538;2023-12-04T12:22:26;-3.80;99.90
47520;DHT22;33252;48.122;11.538;2023-12-04T12:24:51;-3.80;99.90
47520;DHT22;33252;48.122;11.538;2023-12-04T12:27:17;-3.80;99.90
47520;DHT22;33252;48.122;11.538;2023-12-04T12:29:43;-3.90;99.90
47520;DHT22;33252;48.122;11.538;2023-12-04T12:32:08;-3.80;99.90
47520;DHT22;33252;48.122;11.538;2023-12-04T12:34:34;-3.80;99.90
47520;DHT22;33252;48.122;11.538;2023-12-04T12:37:03;-3.70;99.90
47520;DHT22;33252;48.122;11.538;2023-12-04T12:39:29;-3.60;99.90
47520;DHT22;33252;48.122;11.538;2023-12-04T12:41:55;-3.50;99.90
47520;DHT22;33252;48.122;11.538;2023-12-04T12:44:21;-3.50;99.90
47520;DHT22;33252;48.122;11.538;2023-12-04T12:46:50;-3.50;99.90
47520;DHT22;33252;48.122;11.538;2023-12-04T12:49:19;-3.40;99.90
47520;DHT22;33252;48.122;11.538;2023-12-04T12:51:46;-3.40;99.90
47520;DHT22;33252;48.122;11.538;2023-12-04T12:54:11;-3.30;99.90
47520;DHT22;33252;48.122;11.538;2023-12-04T12:56:37;-3.10;99.90
47520;DHT22;33252;48.122;11.538;2023-12-04T12:59:02;-3.10;99.90
47520;DHT22;33252;48.122;11.538;2023-12-04T13:01:31;-2.90;99.90
47520;DHT22;33252;48.122;11.538;2023-12-04T13:03:57;-2.80;99.90
47520;DHT22;33252;48.122;11.538;2023-12-04T13:06:23;-2.70;99.90
47520;DHT22;33252;48.122;11.538;2023-12-04T13:08:48;-2.80;99.90
47520;DHT22;33252;48.122;11.538;2023-12-04T13:11:14;-2.90;99.90
47520;DHT22;33252;48.122;11.538;2023-12-04T13:13:40;-2.80;99.90
47520;DHT22;33252;48.122;11.538;2023-12-04T13:16:06;-2.80;99.90
47520;DHT22;33252;48.122;11.538;2023-12-04T13:18:31;-2.70;99.90
47520;DHT22;33252;48.122;11.538;2023-12-04T13:21:00;-2.70;99.90
47520;DHT22;33252;48.122;11.538;2023-12-04T13:23:26;-2.90;99.90
47520;DHT22;33252;48.122;11.538;2023-12-04T13:25:51;-2.90;99.90
47520;DHT22;33252;48.122;11.538;2023-12-04T13:28:17;-2.80;99.90
47520;DHT22;33252;48.122;11.538;2023-12-04T13:30:42;-2.90;99.90
47520;DHT22;33252;48.122;11.538;2023-12-04T13:33:08;-3.00;99.90
47520;DHT22;33252;48.122;11.538;2023-12-04T13:35:34;-2.90;99.90
47520;DHT22;33252;48.122;11.538;2023-12-04T13:37:59;-2.90;99.90
47520;DHT22;33252;48.122;11.538;2023-12-04T13:40:25;-2.90;99.90
47520;DHT22;33252;48.122;11.538;2023-12-04T13:42:53;-2.90;99.90
47520;DHT22;33252;48.122;11.538;2023-12-04T13:45:38;-2.80;99.90
47520;DHT22;33252;48.122;11.538;2023-12-04T13:48:04;-2.80;99.90
47520;DHT22;33252;48.122;11.538;2023-12-04T13:50:29;-2.70;99.90
47520;DHT22;33252;48.122;11.538;2023-12-04T13:52:55;-2.70;99.90
47520;DHT22;33252;48.122;11.538;2023-12-04T13:55:25;-2.70;99.90
47520;DHT22;33252;48.122;11.538;2023-12-04T13:58:11;-2.60;99.90
47520;DHT22;33252;48.122;11.538;2023-12-04T14:00:57;-2.60;99.90
47520;DHT22;33252;48.122;11.538;2023-12-04T14:03:22;-2.60;99.90
47520;DHT22;33252;48.122;11.538;2023-12-04T14:05:48;-2.60;99.90
47520;DHT22;33252;48.122;11.538;2023-12-04T14:08:14;-2.50;99.90
47520;DHT22;33252;48.122;11.538;2023-12-04T14:10:39;-2.50;99.90
47520;DHT22;33252;48.122;11.538;2023-12-04T14:13:05;-2.40;99.90
47520;DHT22;33252;48.122;11.538;2023-12-04T14:15:30;-2.40;99.90
47520;DHT22;33252;48.122;11.538;2023-12-04T14:17:56;-2.40;99.90
47520;DHT22;33252;48.122;11.538;2023-12-04T14:20:21;-2.50;99.90
47520;DHT22;33252;48.122;11.538;2023-12-04T14:22:47;-2.50;99.90
47520;DHT22;33252;48.122;11.538;2023-12-04T14:25:13;-2.50;99.90
47520;DHT22;33252;48.122;11.538;2023-12-04T14:27:39;-2.50;99.90
47520;DHT22;33252;48.122;11.538;2023-12-04T14:30:09;-2.50;99.90
47520;DHT22;33252;48.122;11.538;2023-12-04T14:32:35;-2.50;99.90
47520;DHT22;33252;48.122;11.538;2023-12-04T14:35:05;-2.50;99.90
47520;DHT22;33252;48.122;11.538;2023-12-04T14:37:30;-2.70;99.90
47520;DHT22;33252;48.122;11.538;2023-12-04T14:39:56;-2.80;99.90
47520;DHT22;33252;48.122;11.538;2023-12-04T14:42:22;-2.90;99.90
47520;DHT22;33252;48.122;11.538;2023-12-04T14:44:47;-3.00;99.90
47520;DHT22;33252;48.122;11.538;2023-12-04T14:47:13;-3.00;99.90
47520;DHT22;33252;48.122;11.538;2023-12-04T14:49:39;-3.00;99.90
47520;DHT22;33252;48.122;11.538;2023-12-04T14:52:05;-3.00;99.90
47520;DHT22;33252;48.122;11.538;2023-12-04T14:54:32;-3.20;99.90
47520;DHT22;33252;48.122;11.538;2023-12-04T14:57:17;-3.40;99.90
47520;DHT22;33252;48.122;11.538;2023-12-04T15:00:02;-3.40;99.90
47520;DHT22;33252;48.122;11.538;2023-12-04T15:02:30;-3.20;99.90
47520;DHT22;33252;48.122;11.538;2023-12-04T15:05:18;-3.30;99.90
47520;DHT22;33252;48.122;11.538;2023-12-04T15:08:02;-3.40;99.90
47520;DHT22;33252;48.122;11.538;2023-12-04T15:10:48;-3.50;99.90
47520;DHT22;33252;48.122;11.538;2023-12-04T15:13:33;-3.50;99.90
47520;DHT22;33252;48.122;11.538;2023-12-04T15:16:16;-3.50;99.90